Time;durP1;ratioP1;P1;durP2;ratioP2;P2;SDS_P1;SDS_P2;PMS_P1;PMS_P2;Temp;Humidity;BMP_temperature;BMP_pressure;BME280_temperature;BME280_humidity;BME280_pressure;Samples;Min_cycle;Max_cycle;Signal;HPM_P1;HPM_P2
2022/11/23 00:01:18;;;;;;;6.03;2.05;;;;;;;0.71;100.00;98659.44;5015709;28;20033;-60
2022/11/23 00:03:46;;;;;;;5.97;2.50;;;;;;;0.71;100.00;98660.22;5018659;28;20410;-60
2022/11/23 00:06:12;;;;;;;9.90;2.72;;;;;;;0.69;100.00;98656.19;5021264;28;20025;-61
2022/11/23 00:08:38;;;;;;;9.05;2.67;;;;;;;0.69;100.00;98656.19;5018747;28;20031;-61
2022/11/23 00:11:03;;;;;;;7.95;2.67;;;;;;;0.74;100.00;98662.50;5019703;28;20041;-58
2022/11/23 00:13:29;;;;;;;4.63;2.97;;;;;;;0.74;100.00;98659.88;5023804;28;20037;-60
2022/11/23 00:15:55;;;;;;;8.93;3.15;;;;;;;0.79;100.00;98665.41;5020644;28;20096;-60
2022/11/23 00:18:20;;;;;;;6.68;2.67;;;;;;;0.74;100.00;98669.50;5022543;28;20120;-60
2022/11/23 00:20:46;;;;;;;8.52;2.70;;;;;;;0.82;100.00;98665.03;5016351;28;20483;-60
2022/11/23 00:23:11;;;;;;;9.55;3.08;;;;;;;0.90;100.00;98658.16;5000506;28;20421;-60
2022/11/23 00:25:36;;;;;;;3.15;2.38;;;;;;;0.95;100.00;98664.47;5021267;28;20027;-60
2022/11/23 00:28:02;;;;;;;10.48;3.85;;;;;;;1.03;100.00;98661.84;5001247;28;20493;-59
2022/11/23 00:30:28;;;;;;;4.63;2.53;;;;;;;1.11;100.00;98662.75;5022237;28;20037;-61
2022/11/23 00:32:54;;;;;;;10.30;2.33;;;;;;;1.10;100.00;98661.94;5018721;28;20053;-57
2022/11/23 00:35:19;;;;;;;4.25;3.28;;;;;;;1.11;100.00;98655.75;5021531;28;20185;-59
2022/11/23 00:37:45;;;;;;;7.70;2.53;;;;;;;1.10;100.00;98648.88;5023423;28;20021;-59
2022/11/23 00:40:11;;;;;;;13.77;3.97;;;;;;;1.16;100.00;98658.66;5020789;28;20562;-60
2022/11/23 00:42:36;;;;;;;5.80;3.13;;;;;;;1.12;100.00;98640.88;5021350;28;20062;-60
2022/11/23 00:45:01;;;;;;;2.75;1.58;;;;;;;1.13;100.00;98653.75;5022700;28;20053;-58
2022/11/23 00:47:27;;;;;;;5.78;3.13;;;;;;;1.22;100.00;98646.69;5023202;28;20140;-59
2022/11/23 00:49:52;;;;;;;3.58;1.67;;;;;;;1.27;100.00;98660.03;5025058;28;20038;-59
2022/11/23 00:52:17;;;;;;;5.75;2.90;;;;;;;1.37;100.00;98651.94;5020405;28;20038;-59
2022/11/23 00:54:43;;;;;;;6.40;2.95;;;;;;;1.44;100.00;98650.25;5004566;28;20029;-59
2022/11/23 00:57:08;;;;;;;7.03;2.88;;;;;;;1.49;100.00;98651.31;5025813;28;20030;-61
2022/11/23 00:59:34;;;;;;;19.17;4.10;;;;;;;1.54;100.00;98648.19;5026680;28;20037;-59
2022/11/23 01:01:59;;;;;;;9.90;3.28;;;;;;;1.58;100.00;98648.66;5026737;28;20111;-60
2022/11/23 01:04:24;;;;;;;19.35;6.70;;;;;;;1.62;100.00;98648.09;5023659;28;20108;-60
2022/11/23 01:06:55;;;;;;;11.70;4.43;;;;;;;1.67;100.00;98637.13;5023842;28;20045;-60
2022/11/23 01:09:23;;;;;;;14.35;4.10;;;;;;;1.68;100.00;98631.75;5027385;28;20046;-57
2022/11/23 01:11:49;;;;;;;10.30;4.63;;;;;;;1.78;100.00;98634.06;5026713;28;20045;-60
2022/11/23 01:14:16;;;;;;;15.05;3.88;;;;;;;1.81;100.00;98628.50;5028740;28;20030;-61
2022/11/23 01:16:41;;;;;;;16.55;4.85;;;;;;;1.85;100.00;98626.31;5026790;28;20384;-61
2022/11/23 01:19:13;;;;;;;16.88;5.05;;;;;;;1.92;100.00;98633.28;5009513;28;20025;-61
2022/11/23 01:21:39;;;;;;;12.98;4.65;;;;;;;2.02;100.00;98617.31;5029539;28;20045;-60
2022/11/23 01:24:06;;;;;;;8.10;3.80;;;;;;;2.07;100.00;98614.16;5025959;28;20033;-59
2022/11/23 01:26:32;;;;;;;8.38;3.80;;;;;;;2.03;100.00;98605.84;5024594;28;20486;-60
2022/11/23 01:28:57;;;;;;;8.30;3.63;;;;;;;2.15;100.00;98598.38;5026019;28;20064;-60
2022/11/23 01:31:24;;;;;;;11.27;4.50;;;;;;;2.19;100.00;98599.63;5025253;28;20399;-61
2022/11/23 01:33:58;;;;;;;11.27;4.32;;;;;;;2.19;100.00;98607.47;5028872;28;20021;-60
2022/11/23 01:36:27;;;;;;;14.27;4.70;;;;;;;2.20;100.00;98601.25;5024508;28;20142;-61
2022/11/23 01:38:53;;;;;;;15.25;4.75;;;;;;;2.23;100.00;98598.28;5027618;28;20492;-60
2022/11/23 01:41:24;;;;;;;7.68;3.45;;;;;;;2.29;100.00;98594.09;5032835;28;20067;-61
2022/11/23 01:43:50;;;;;;;9.45;4.85;;;;;;;2.21;100.00;98595.03;5016439;28;20120;-60
2022/11/23 01:46:16;;;;;;;6.22;2.92;;;;;;;2.26;100.00;98589.25;5036269;28;20116;-61
2022/11/23 01:49:00;;;;;;;9.45;3.45;;;;;;;2.26;100.00;98595.28;5030176;28;20037;-61
2022/11/23 01:51:31;;;;;;;10.63;3.35;;;;;;;2.21;100.00;98589.78;5026231;28;20061;-61
2022/11/23 01:54:07;;;;;;;9.65;3.90;;;;;;;2.26;100.00;98592.66;5036470;28;20083;-60
2022/11/23 01:56:38;;;;;;;8.93;5.07;;;;;;;2.19;100.00;98576.09;5034572;28;20115;-61
2022/11/23 01:59:09;;;;;;;11.82;4.05;;;;;;;2.22;100.00;98572.28;5024114;28;20063;-61
2022/11/23 02:01:35;;;;;;;9.50;3.78;;;;;;;2.30;100.00;98567.78;5033769;28;20472;-61
2022/11/23 02:04:01;;;;;;;5.93;3.47;;;;;;;2.31;100.00;98552.91;5029505;28;20021;-61
2022/11/23 02:06:28;;;;;;;8.40;4.10;;;;;;;2.33;100.00;98550.91;5024980;28;20439;-61
2022/11/23 02:08:54;;;;;;;6.22;3.28;;;;;;;2.25;100.00;98548.41;5026357;28;20132;-61
2022/11/23 02:11:19;;;;;;;10.43;4.45;;;;;;;2.27;100.00;98549.00;5028775;28;20302;-61
2022/11/23 02:13:47;;;;;;;8.85;3.20;;;;;;;2.22;100.00;98533.91;5033824;28;20332;-59
2022/11/23 02:16:13;;;;;;;7.15;3.13;;;;;;;2.18;100.00;98538.66;5026300;28;20036;-60
2022/11/23 02:18:42;;;;;;;7.20;2.35;;;;;;;2.23;100.00;98539.94;5028166;28;20021;-59
2022/11/23 02:21:08;;;;;;;11.88;4.40;;;;;;;2.18;100.00;98532.63;5038142;28;20067;-59
2022/11/23 02:23:40;;;;;;;6.28;2.60;;;;;;;2.18;100.00;98524.78;5025882;28;20065;-59
2022/11/23 02:26:14;;;;;;;9.95;3.42;;;;;;;2.21;100.00;98521.00;5033160;28;20145;-60
2022/11/23 02:28:44;;;;;;;15.90;3.13;;;;;;;2.18;100.00;98527.41;5023623;28;20025;-59
2022/11/23 02:31:10;;;;;;;7.70;3.30;;;;;;;2.16;100.00;98518.94;5012083;28;20329;-60
2022/11/23 02:33:39;;;;;;;10.25;3.08;;;;;;;2.23;100.00;98513.78;5019881;28;20269;-60
2022/11/23 02:36:30;;;;;;;7.18;2.97;;;;;;;2.27;100.00;98522.88;5024928;28;20021;-60
2022/11/23 02:38:59;;;;;;;6.30;3.08;;;;;;;2.21;100.00;98513.16;5026935;28;20360;-60
2022/11/23 02:41:25;;;;;;;5.32;3.75;;;;;;;2.27;100.00;98508.00;5018013;28;20429;-61
2022/11/23 02:43:55;;;;;;;4.60;2.95;;;;;;;2.30;100.00;98497.16;5035321;28;20025;-60
2022/11/23 02:46:20;;;;;;;6.80;3.70;;;;;;;2.22;100.00;98497.28;5034624;28;20079;-61
2022/11/23 02:48:46;;;;;;;4.25;2.65;;;;;;;2.26;100.00;98490.69;5029674;28;20057;-61
2022/11/23 02:51:11;;;;;;;3.30;2.25;;;;;;;2.17;100.00;98491.81;5013114;28;20368;-61
2022/11/23 02:53:36;;;;;;;5.80;3.17;;;;;;;2.15;100.00;98483.34;5031936;28;20459;-61
2022/11/23 02:56:02;;;;;;;3.97;2.47;;;;;;;2.14;100.00;98479.91;5034527;28;20021;-62
2022/11/23 02:58:27;;;;;;;4.65;2.35;;;;;;;2.12;100.00;98487.13;5028331;28;20394;-60
2022/11/23 03:00:52;;;;;;;7.32;2.67;;;;;;;2.11;100.00;98482.06;5024933;28;20025;-61
2022/11/23 03:03:18;;;;;;;5.05;2.72;;;;;;;2.15;100.00;98473.69;5022033;28;20446;-61
2022/11/23 03:05:43;;;;;;;4.05;2.85;;;;;;;2.22;100.00;98475.53;5011749;28;20021;-60
2022/11/23 03:08:09;;;;;;;4.60;3.00;;;;;;;2.23;100.00;98462.28;5023829;28;20097;-60
2022/11/23 03:10:34;;;;;;;5.38;2.47;;;;;;;2.23;100.00;98462.28;5026386;28;20057;-61
2022/11/23 03:12:59;;;;;;;6.15;1.80;;;;;;;2.21;100.00;98456.44;5037710;28;20029;-61
2022/11/23 03:15:25;;;;;;;4.20;2.38;;;;;;;2.21;100.00;98453.81;5028144;28;20442;-60
2022/11/23 03:17:50;;;;;;;6.57;3.42;;;;;;;2.20;100.00;98449.59;5023703;28;20025;-60
2022/11/23 03:20:16;;;;;;;7.85;4.00;;;;;;;2.19;100.00;98445.34;5022117;28;20063;-60
2022/11/23 03:22:41;;;;;;;6.13;3.33;;;;;;;2.20;100.00;98451.41;5002112;28;20033;-59
2022/11/23 03:25:07;;;;;;;4.13;2.50;;;;;;;2.25;100.00;98447.22;5034304;28;20067;-61
2022/11/23 03:27:33;;;;;;;31.23;5.10;;;;;;;2.23;100.00;98435.34;5023790;28;20491;-61
2022/11/23 03:29:59;;;;;;;10.93;2.72;;;;;;;2.13;100.00;98443.47;5022596;28;20493;-60
2022/11/23 03:32:25;;;;;;;6.60;2.97;;;;;;;2.11;100.00;98442.84;5025996;28;20025;-61
2022/11/23 03:34:50;;;;;;;7.10;4.18;;;;;;;2.06;100.00;98435.56;5027322;28;20515;-60
2022/11/23 03:37:16;;;;;;;3.90;2.72;;;;;;;2.06;100.00;98432.94;5035173;28;20032;-60
2022/11/23 03:39:41;;;;;;;6.07;2.40;;;;;;;2.06;100.00;98430.34;5022277;28;20048;-61
2022/11/23 03:42:06;;;;;;;2.15;1.95;;;;;;;2.06;100.00;98429.53;5034432;28;20075;-61
2022/11/23 03:44:32;;;;;;;3.97;2.15;;;;;;;1.95;100.00;98423.00;5014157;28;20037;-60
2022/11/23 03:46:58;;;;;;;5.93;1.85;;;;;;;1.88;100.00;98428.13;5022854;28;20056;-61
2022/11/23 03:49:23;;;;;;;5.43;2.72;;;;;;;1.81;100.00;98427.28;5032672;28;20037;-60
2022/11/23 03:51:48;;;;;;;5.13;2.05;;;;;;;1.78;100.00;98414.56;5026709;28;20120;-60
2022/11/23 03:54:14;;;;;;;5.47;2.75;;;;;;;1.81;100.00;98411.59;5028906;28;20025;-61
2022/11/23 03:56:39;;;;;;;9.27;3.60;;;;;;;1.79;100.00;98403.13;5025097;28;20510;-60
2022/11/23 03:59:05;;;;;;;8.48;2.78;;;;;;;1.71;100.00;98405.88;5019869;28;20547;-61
2022/11/23 04:01:30;;;;;;;7.75;1.95;;;;;;;1.63;100.00;98395.53;5026252;28;20029;-61
2022/11/23 04:03:55;;;;;;;16.63;3.05;;;;;;;1.57;100.00;98404.91;5019118;28;20034;-61
2022/11/23 04:06:21;;;;;;;5.20;2.40;;;;;;;1.52;100.00;98395.03;5021439;28;20029;-60
2022/11/23 04:08:46;;;;;;;4.55;2.25;;;;;;;1.46;100.00;98387.09;5027525;28;20128;-61
2022/11/23 04:11:11;;;;;;;3.95;1.55;;;;;;;1.40;100.00;98388.63;5022129;28;20120;-61
2022/11/23 04:13:37;;;;;;;8.45;2.58;;;;;;;1.34;100.00;98384.13;5029352;28;20021;-60
2022/11/23 04:16:02;;;;;;;15.73;2.40;;;;;;;1.30;100.00;98375.06;5031732;28;20026;-60
2022/11/23 04:18:28;;;;;;;5.68;1.77;;;;;;;1.22;100.00;98375.16;5024692;28;20057;-61
2022/11/23 04:20:53;;;;;;;4.13;1.80;;;;;;;1.15;100.00;98371.66;5022822;28;20112;-62
2022/11/23 04:23:18;;;;;;;5.20;1.73;;;;;;;1.08;100.00;98363.75;5027486;28;20067;-60
2022/11/23 04:25:44;;;;;;;5.18;2.22;;;;;;;0.98;100.00;98360.59;5024736;28;20025;-62
2022/11/23 04:28:10;;;;;;;2.35;1.50;;;;;;;0.93;100.00;98353.34;5027491;28;20029;-61
2022/11/23 04:30:35;;;;;;;3.90;1.45;;;;;;;0.85;100.00;98342.97;5022357;28;20039;-61
2022/11/23 04:33:01;;;;;;;3.45;1.83;;;;;;;0.80;100.00;98332.25;5023401;28;20034;-60
2022/11/23 04:35:26;;;;;;;3.72;1.88;;;;;;;0.65;100.00;98319.25;5025535;28;20050;-60
2022/11/23 04:37:51;;;;;;;4.85;1.58;;;;;;;0.68;100.00;98315.47;5033208;28;20033;-61
2022/11/23 04:40:17;;;;;;;3.35;2.05;;;;;;;0.61;100.00;98305.72;5031927;28;20398;-61
2022/11/23 04:42:43;;;;;;;4.75;2.15;;;;;;;0.62;100.00;98298.72;5035570;28;20030;-61
2022/11/23 04:45:10;;;;;;;3.85;2.20;;;;;;;0.60;100.00;98287.69;5034050;28;20459;-60
2022/11/23 04:47:35;;;;;;;3.53;1.50;;;;;;;0.61;100.00;98294.50;5033301;28;20522;-61
2022/11/23 04:50:00;;;;;;;5.20;0.93;;;;;;;0.78;100.00;98295.94;5035303;28;20112;-60
2022/11/23 04:52:26;;;;;;;1.92;0.45;;;;;;;1.10;100.00;98309.56;5029551;28;20123;-61
2022/11/23 04:54:51;;;;;;;6.22;1.00;;;;;;;1.68;100.00;98299.94;5014028;28;20032;-62
2022/11/23 04:57:17;;;;;;;2.45;0.80;;;;;;;1.92;100.00;98301.34;5034860;28;20064;-61
2022/11/23 04:59:42;;;;;;;2.45;1.30;;;;;;;2.14;100.00;98314.38;5023995;28;20040;-61
2022/11/23 05:02:09;;;;;;;3.30;1.13;;;;;;;2.34;100.00;98307.47;5031915;28;20042;-61
2022/11/23 05:04:34;;;;;;;2.90;1.80;;;;;;;2.51;100.00;98315.03;5027383;28;20079;-61
2022/11/23 05:07:00;;;;;;;4.68;1.02;;;;;;;2.78;100.00;98316.00;5035431;28;20029;-60
2022/11/23 05:09:25;;;;;;;1.52;0.73;;;;;;;3.06;100.00;98310.69;5031944;28;20576;-61
2022/11/23 05:11:50;;;;;;;2.92;1.10;;;;;;;3.36;100.00;98307.78;5026980;28;20060;-61
2022/11/23 05:14:16;;;;;;;4.20;0.77;;;;;;;3.53;100.00;98306.38;5038443;28;20406;-61
2022/11/23 05:16:41;;;;;;;1.23;0.38;;;;;;;3.79;100.00;98299.56;5029068;28;20064;-60
2022/11/23 05:19:07;;;;;;;0.65;0.38;;;;;;;3.90;100.00;98306.84;5026165;28;20100;-61
2022/11/23 05:21:32;;;;;;;6.90;0.80;;;;;;;3.93;100.00;98294.13;5036918;28;20029;-61
2022/11/23 05:23:58;;;;;;;3.58;0.22;;;;;;;4.08;100.00;98296.56;5028577;28;20034;-61
2022/11/23 05:26:23;;;;;;;2.85;1.15;;;;;;;4.15;100.00;98296.53;5026121;28;20030;-60
2022/11/23 05:28:48;;;;;;;16.25;1.70;;;;;;;4.25;100.00;98298.78;5023274;28;20022;-61
2022/11/23 05:31:14;;;;;;;2.78;0.32;;;;;;;4.31;100.00;98292.69;5032027;28;20037;-61
2022/11/23 05:33:39;;;;;;;2.47;1.67;;;;;;;4.31;100.00;98287.44;5031943;28;20383;-60
2022/11/23 05:36:05;;;;;;;4.35;0.52;;;;;;;4.41;100.00;98281.78;5022459;28;20116;-61
2022/11/23 05:38:30;;;;;;;5.25;0.35;;;;;;;4.45;100.00;98268.06;5029028;28;20044;-61
2022/11/23 05:40:55;;;;;;;2.30;0.80;;;;;;;4.52;100.00;98263.63;5026672;28;20449;-60
2022/11/23 05:43:21;;;;;;;7.85;0.60;;;;;;;4.58;100.00;98252.28;5024808;28;20022;-61
2022/11/23 05:45:46;;;;;;;3.65;0.75;;;;;;;4.56;100.00;98251.66;5023590;28;20115;-62
2022/11/23 05:48:11;;;;;;;11.70;1.98;;;;;;;4.56;100.00;98249.03;5023054;28;20068;-62
2022/11/23 05:50:37;;;;;;;2.22;1.08;;;;;;;4.63;100.00;98238.53;5028201;28;20038;-62
2022/11/23 05:53:02;;;;;;;3.50;0.40;;;;;;;4.79;100.00;98237.25;5025601;28;20475;-61
2022/11/23 05:55:28;;;;;;;5.90;0.95;;;;;;;4.85;100.00;98236.41;5028902;28;20098;-60
2022/11/23 05:57:53;;;;;;;2.45;0.40;;;;;;;4.86;100.00;98238.06;5027429;28;20129;-60
2022/11/23 06:00:19;;;;;;;4.00;1.08;;;;;;;4.88;100.00;98222.91;5025099;28;20041;-61
2022/11/23 06:02:44;;;;;;;1.90;1.45;;;;;;;4.89;100.00;98228.94;5026196;28;20273;-60
2022/11/23 06:05:10;;;;;;;3.92;0.52;;;;;;;4.91;100.00;98209.34;5024180;28;20037;-60
2022/11/23 06:07:36;;;;;;;2.88;0.32;;;;;;;5.00;100.00;98202.00;5027206;28;20042;-61
2022/11/23 06:10:03;;;;;;;5.40;1.42;;;;;;;5.05;100.00;98204.03;5002396;28;20510;-59
2022/11/23 06:12:29;;;;;;;7.60;0.40;;;;;;;5.09;100.00;98192.88;4985836;28;20038;-61
2022/11/23 06:14:54;;;;;;;5.72;1.30;;;;;;;5.20;100.00;98194.03;4985202;28;20033;-59
2022/11/23 06:17:20;;;;;;;1.48;0.60;;;;;;;5.36;100.00;98190.88;4983414;28;20026;-62
2022/11/23 06:19:45;;;;;;;3.13;0.80;;;;;;;5.38;100.00;98185.41;4987326;28;20109;-60
2022/11/23 06:22:11;;;;;;;5.13;0.55;;;;;;;5.42;100.00;98178.69;4989003;28;20033;-61
2022/11/23 06:24:36;;;;;;;6.63;0.88;;;;;;;5.54;100.00;98169.09;4985774;28;20038;-62
2022/11/23 06:27:02;;;;;;;3.45;0.70;;;;;;;5.56;100.00;98167.06;4988616;28;20085;-62
2022/11/23 06:29:27;;;;;;;6.07;1.40;;;;;;;5.61;100.00;98142.78;4981593;28;20515;-63
2022/11/23 06:31:53;;;;;;;3.72;0.88;;;;;;;5.74;100.00;98144.47;4987561;28;20069;-60
2022/11/23 06:34:19;;;;;;;9.27;1.05;;;;;;;5.84;100.00;98140.34;4988392;28;20026;-61
2022/11/23 06:36:44;;;;;;;5.80;1.30;;;;;;;5.90;100.00;98142.09;4996323;28;20038;-62
2022/11/23 06:39:09;;;;;;;4.30;0.77;;;;;;;5.99;100.00;98126.03;4995456;28;20061;-62
2022/11/23 06:41:35;;;;;;;6.03;0.47;;;;;;;6.02;100.00;98123.00;4988898;28;20034;-61
2022/11/23 06:44:00;;;;;;;1.65;0.38;;;;;;;6.04;100.00;98118.28;4986039;28;20404;-60
2022/11/23 06:46:26;;;;;;;6.97;0.70;;;;;;;6.08;100.00;98101.88;4985621;28;20090;-61
2022/11/23 06:48:51;;;;;;;6.15;1.20;;;;;;;6.13;100.00;98103.03;4983859;28;20023;-62
2022/11/23 06:51:17;;;;;;;12.48;0.80;;;;;;;6.18;100.00;98096.09;4982982;28;20111;-61
2022/11/23 06:53:42;;;;;;;13.15;2.38;;;;;;;6.26;100.00;98103.69;4992925;28;20045;-61
2022/11/23 06:56:08;;;;;;;11.63;2.13;;;;;;;6.25;100.00;98109.97;4986612;28;20031;-60
2022/11/23 06:58:34;;;;;;;8.02;2.72;;;;;;;6.26;100.00;98101.03;4983124;28;20069;-61
2022/11/23 07:01:01;;;;;;;8.88;0.98;;;;;;;6.23;100.00;98077.81;4984600;28;20133;-59
2022/11/23 07:03:27;;;;;;;14.25;0.65;;;;;;;6.30;100.00;98072.47;4982825;28;20130;-56
2022/11/23 07:05:52;;;;;;;7.97;0.85;;;;;;;6.31;100.00;98072.25;4980689;28;20479;-58
2022/11/23 07:08:17;;;;;;;2.00;0.70;;;;;;;6.31;100.00;98074.06;4987022;28;20026;-59
2022/11/23 07:10:43;;;;;;;8.68;1.00;;;;;;;6.37;100.00;98072.38;5022948;28;20049;-59
2022/11/23 07:13:09;;;;;;;22.33;0.95;;;;;;;6.33;100.00;98059.66;5033476;28;20033;-60
2022/11/23 07:15:36;;;;;;;6.55;1.52;;;;;;;6.38;100.00;98045.84;5021903;28;20038;-60
2022/11/23 07:18:01;;;;;;;4.53;1.20;;;;;;;6.38;100.00;98042.41;5021499;28;20088;-62
2022/11/23 07:20:27;;;;;;;4.90;0.43;;;;;;;6.36;100.00;98036.56;5028424;28;20041;-61
2022/11/23 07:23:04;;;;;;;4.45;1.60;;;;;;;6.41;100.00;98026.97;5022054;28;20026;-62
2022/11/23 07:25:31;;;;;;;8.68;1.52;;;;;;;6.50;100.00;98022.19;5024954;28;20032;-61
2022/11/23 07:27:58;;;;;;;8.73;0.73;;;;;;;6.51;100.00;98011.44;5024985;28;20375;-62
2022/11/23 07:30:27;;;;;;;6.53;0.98;;;;;;;6.62;100.00;98016.97;5020910;28;20060;-62
2022/11/23 07:32:53;;;;;;;3.30;0.40;;;;;;;6.64;100.00;98018.34;5023145;28;20033;-61
2022/11/23 07:35:19;;;;;;;4.60;0.47;;;;;;;6.67;100.00;98003.91;5025905;28;20084;-61
2022/11/23 07:37:46;;;;;;;10.43;0.90;;;;;;;6.72;100.00;97999.56;5025214;28;20116;-61
2022/11/23 07:40:12;;;;;;;3.90;0.35;;;;;;;6.74;100.00;98002.00;5021033;28;20398;-62
2022/11/23 07:42:37;;;;;;;9.50;0.98;;;;;;;6.83;100.00;97999.81;5026812;28;20104;-60
2022/11/23 07:45:04;;;;;;;1.35;0.20;;;;;;;6.83;100.00;97986.66;5022440;28;21480;-60
2022/11/23 07:47:30;;;;;;;0.45;0.45;;;;;;;6.97;100.00;97988.06;5021961;28;20044;-60
2022/11/23 07:49:55;;;;;;;2.25;0.30;;;;;;;6.99;100.00;97983.34;5022900;28;20030;-60
2022/11/23 07:52:20;;;;;;;0.60;0.13;;;;;;;7.14;100.00;97988.16;5024635;28;20036;-60
2022/11/23 07:54:46;;;;;;;3.78;0.90;;;;;;;7.16;100.00;97986.88;5022545;28;20112;-61
2022/11/23 07:57:11;;;;;;;3.08;0.55;;;;;;;7.19;100.00;97983.78;5023195;28;20355;-61
2022/11/23 07:59:36;;;;;;;1.75;0.40;;;;;;;7.26;100.00;97993.44;5020062;28;20432;-60
2022/11/23 08:02:02;;;;;;;2.50;0.22;;;;;;;7.22;100.00;97985.97;5026859;28;20025;-61
2022/11/23 08:04:28;;;;;;;2.50;0.35;;;;;;;7.34;100.00;97990.44;5017085;28;20084;-61
2022/11/23 08:06:54;;;;;;;3.15;0.10;;;;;;;7.41;100.00;97988.50;5023901;28;20526;-61
2022/11/23 08:09:19;;;;;;;2.17;0.40;;;;;;;7.45;100.00;97986.97;5023841;28;20041;-61
2022/11/23 08:11:44;;;;;;;1.48;0.10;;;;;;;7.62;100.00;97987.88;5022173;28;20157;-62
2022/11/23 08:14:10;;;;;;;1.65;0.73;;;;;;;7.58;100.00;97988.56;5027123;28;20025;-61
2022/11/23 08:16:35;;;;;;;3.35;0.10;;;;;;;7.51;100.00;97993.16;5025486;28;20028;-61
2022/11/23 08:19:00;;;;;;;2.83;0.90;;;;;;;7.60;100.00;97983.88;5024512;28;20502;-61
2022/11/23 08:21:26;;;;;;;0.50;0.25;;;;;;;7.62;100.00;97976.53;5026522;28;20025;-61
2022/11/23 08:23:51;;;;;;;2.28;0.68;;;;;;;7.72;100.00;97984.66;5024740;28;20048;-62
2022/11/23 08:26:16;;;;;;;2.53;0.20;;;;;;;7.79;100.00;97987.16;5024207;28;20036;-59
2022/11/23 08:28:42;;;;;;;0.38;0.00;;;;;;;7.89;100.00;97987.34;5001317;28;20025;-61
2022/11/23 08:31:09;;;;;;;2.88;0.65;;;;;;;7.96;100.00;97984.59;5017031;28;20026;-60
2022/11/23 08:33:35;;;;;;;0.28;0.00;;;;;;;8.06;100.00;97975.03;5021747;28;20037;-62
2022/11/23 08:36:05;;;;;;;0.60;0.20;;;;;;;8.14;100.00;97967.75;5019730;28;20036;-60
2022/11/23 08:38:30;;;;;;;0.10;0.10;;;;;;;8.14;100.00;97952.72;5022562;28;20045;-62
2022/11/23 08:41:00;;;;;;;0.00;0.00;;;;;;;8.23;100.00;97950.50;5023186;28;20455;-62
2022/11/23 08:43:26;;;;;;;0.75;0.00;;;;;;;8.24;100.00;97946.84;5024569;28;20028;-62
2022/11/23 08:45:56;;;;;;;0.13;0.10;;;;;;;8.16;100.00;97934.81;5023633;28;20375;-62
2022/11/23 08:48:21;;;;;;;1.27;0.32;;;;;;;8.17;100.00;97949.59;5023264;28;20033;-63
2022/11/23 08:50:47;;;;;;;1.05;0.10;;;;;;;8.38;100.00;97974.53;5025548;28;20053;-62
2022/11/23 08:53:12;;;;;;;0.28;0.08;;;;;;;8.40;100.00;98030.56;5026692;28;20032;-62
2022/11/23 08:55:37;;;;;;;3.70;0.43;;;;;;;8.36;100.00;98076.13;5007914;28;20486;-60
2022/11/23 08:58:03;;;;;;;0.40;0.00;;;;;;;8.38;100.00;98048.44;5027379;28;20053;-61
2022/11/23 09:00:28;;;;;;;0.45;0.00;;;;;;;8.30;100.00;98054.91;5022086;28;20068;-60
2022/11/23 09:02:57;;;;;;;0.13;0.03;;;;;;;8.41;100.00;98060.41;5024445;28;20112;-61
2022/11/23 09:05:23;;;;;;;0.00;0.00;;;;;;;8.46;100.00;98071.06;5028880;28;20148;-62
2022/11/23 09:07:48;;;;;;;0.00;0.00;;;;;;;8.45;100.00;98072.13;5026833;28;20125;-61
2022/11/23 09:10:14;;;;;;;0.00;0.00;;;;;;;8.55;100.00;98080.22;5028417;28;20067;-61
2022/11/23 09:12:40;;;;;;;2.50;0.00;;;;;;;8.62;100.00;98069.50;5024716;28;20025;-62
2022/11/23 09:15:06;;;;;;;0.38;0.00;;;;;;;8.68;100.00;98063.28;5031086;28;20155;-62
2022/11/23 09:17:32;;;;;;;0.22;0.00;;;;;;;8.67;100.00;98069.59;5028455;28;20120;-63
2022/11/23 09:19:58;;;;;;;0.20;0.00;;;;;;;8.70;100.00;98077.06;5029313;28;20029;-63
2022/11/23 09:22:23;;;;;;;0.10;0.10;;;;;;;8.69;100.00;98088.66;5020019;28;20136;-64
2022/11/23 09:24:48;;;;;;;0.17;0.00;;;;;;;8.70;100.00;98095.56;5035824;28;20120;-64
2022/11/23 09:27:13;;;;;;;3.47;0.00;;;;;;;8.54;100.00;98093.66;5037296;28;20029;-63
2022/11/23 09:29:39;;;;;;;0.70;0.20;;;;;;;8.48;100.00;98101.50;5025228;28;20030;-64
2022/11/23 09:32:04;;;;;;;0.90;0.00;;;;;;;8.45;100.00;98101.16;5032993;28;20038;-63
2022/11/23 09:34:30;;;;;;;2.28;0.00;;;;;;;8.54;100.00;98098.94;5034053;28;20033;-63
2022/11/23 09:36:56;;;;;;;4.00;0.88;;;;;;;8.63;100.00;98102.81;5029523;28;20039;-63
2022/11/23 09:39:22;;;;;;;4.43;0.90;;;;;;;8.70;100.00;98111.41;5024685;28;20120;-63
2022/11/23 09:42:03;;;;;;;2.63;0.10;;;;;;;8.67;100.00;98130.34;5028840;28;20179;-63
2022/11/23 09:44:38;;;;;;;4.60;0.85;;;;;;;8.75;100.00;98124.69;5025753;28;20075;-63
2022/11/23 09:47:18;;;;;;;1.90;0.08;;;;;;;8.77;100.00;98116.53;5032411;28;20482;-64
2022/11/23 09:50:02;;;;;;;3.40;0.98;;;;;;;8.79;100.00;98125.84;5031522;28;20525;-63
2022/11/23 09:52:29;;;;;;;1.65;0.30;;;;;;;8.86;100.00;98128.34;5028701;28;20037;-63
2022/11/23 09:54:59;;;;;;;4.95;0.10;;;;;;;9.02;100.00;98121.47;5032230;28;20398;-64
2022/11/23 09:57:29;;;;;;;9.40;1.20;;;;;;;8.99;100.00;98138.63;5029828;28;20026;-63
2022/11/23 10:00:03;;;;;;;2.60;0.22;;;;;;;9.04;100.00;98140.56;5027479;28;20029;-63
2022/11/23 10:02:30;;;;;;;10.05;1.48;;;;;;;9.01;100.00;98151.56;5031197;28;20099;-65
2022/11/23 10:04:58;;;;;;;0.22;0.00;;;;;;;9.08;100.00;98141.66;5031113;28;20056;-63
2022/11/23 10:07:58;;;;;;;4.35;0.95;;;;;;;9.00;100.00;98150.78;5029437;28;20033;-64
2022/11/23 10:10:40;;;;;;;1.23;0.10;;;;;;;9.04;100.00;98153.78;5022819;28;20223;-63
2022/11/23 10:13:15;;;;;;;1.20;0.22;;;;;;;9.00;100.00;98166.63;5023502;28;20045;-63
2022/11/23 10:16:18;;;;;;;3.25;0.32;;;;;;;9.23;100.00;98130.56;5026427;28;20067;-63
2022/11/23 10:19:00;;;;;;;6.35;0.15;;;;;;;9.12;100.00;98132.22;5028922;28;20203;-64
2022/11/23 10:21:34;;;;;;;2.92;0.82;;;;;;;9.17;100.00;98138.41;5032709;28;20029;-64
2022/11/23 10:24:21;;;;;;;1.25;0.32;;;;;;;9.26;100.00;98130.06;5029610;28;20543;-64
2022/11/23 10:26:49;;;;;;;4.75;0.13;;;;;;;9.26;100.00;98117.66;5029912;28;20037;-64
2022/11/23 10:29:31;;;;;;;5.20;0.85;;;;;;;9.26;100.00;98130.06;5031358;28;20067;-63
2022/11/23 10:31:57;;;;;;;6.97;2.20;;;;;;;9.31;100.00;98130.94;5029862;28;20049;-63
2022/11/23 10:34:32;;;;;;;4.00;0.88;;;;;;;9.35;100.00;98132.09;5027604;28;20372;-63
2022/11/23 10:36:57;;;;;;;8.38;0.20;;;;;;;9.28;100.00;98136.72;5027427;28;20035;-62
2022/11/23 10:39:25;;;;;;;7.53;0.25;;;;;;;9.28;100.00;98136.72;5028805;28;20427;-62
2022/11/23 10:41:52;;;;;;;3.05;0.90;;;;;;;9.45;100.00;98127.97;5009936;28;20125;-63
2022/11/23 10:44:35;;;;;;;2.35;0.20;;;;;;;9.56;100.00;98129.75;5028415;28;20045;-63
2022/11/23 10:47:01;;;;;;;6.78;0.40;;;;;;;9.54;100.00;98143.22;5016609;28;20585;-64
2022/11/23 10:49:29;;;;;;;2.92;0.30;;;;;;;9.54;100.00;98147.72;5021961;28;20068;-63
2022/11/23 10:52:04;;;;;;;2.67;0.70;;;;;;;9.55;100.00;98154.59;5021000;28;20725;-63
2022/11/23 10:54:51;;;;;;;3.88;0.30;;;;;;;9.60;100.00;98166.09;5029035;28;20080;-64
2022/11/23 10:57:41;;;;;;;7.82;0.40;;;;;;;9.79;100.00;98173.78;5028911;28;20068;-64
2022/11/23 11:00:12;;;;;;;19.70;4.35;;;;;;;9.85;100.00;98177.28;5030532;28;20033;-62
2022/11/23 11:02:55;;;;;;;6.90;0.25;;;;;;;9.79;100.00;98181.72;5028151;28;20387;-63
2022/11/23 11:05:29;;;;;;;5.88;0.55;;;;;;;9.70;100.00;98170.72;5022832;28;20025;-60
2022/11/23 11:07:58;;;;;;;7.82;0.50;;;;;;;9.64;100.00;98182.25;5034192;28;20486;-63
2022/11/23 11:10:48;;;;;;;8.57;0.60;;;;;;;9.30;100.00;98207.91;5027683;28;20057;-62
2022/11/23 11:13:26;;;;;;;4.82;0.25;;;;;;;9.22;100.00;98206.44;5025150;28;20037;-64
2022/11/23 11:15:57;;;;;;;11.18;1.23;;;;;;;9.23;100.00;98202.75;5025301;28;20033;-62
2022/11/23 11:18:28;;;;;;;6.25;0.25;;;;;;;9.27;100.00;98203.88;5022049;28;20060;-62
2022/11/23 11:20:57;;;;;;;6.97;2.22;;;;;;;9.36;100.00;98204.28;5026071;28;20522;-62
2022/11/23 11:23:23;;;;;;;6.60;0.30;;;;;;;9.51;100.00;98206.41;5029827;28;20083;-64
2022/11/23 11:25:51;;;;;;;2.17;1.23;;;;;;;9.63;100.00;98203.66;5030405;28;20064;-62
2022/11/23 11:28:33;;;;;;;6.97;0.50;;;;;;;9.67;100.00;98208.25;5024070;28;20545;-63
2022/11/23 11:31:40;;;;;;;12.00;1.67;;;;;;;9.75;100.00;98204.38;5028904;28;20029;-63
2022/11/23 11:34:38;;;;;;;8.13;0.70;;;;;;;9.83;100.00;98215.41;5028908;28;20053;-63